sensor_id;sensor_type;location;lat;lon;timestamp;pressure;altitude;pressure_sealevel;temperature;humidity
47530;BME280;33272;51.922;7.730;2022-12-18T00:02:21;102114.00;;;-9.37;100.00
47530;BME280;33272;51.922;7.730;2022-12-18T00:04:48;102108.25;;;-9.42;100.00
47530;BME280;33272;51.922;7.730;2022-12-18T00:07:15;102115.53;;;-9.47;100.00
47530;BME280;33272;51.922;7.730;2022-12-18T00:09:42;102119.41;;;-9.53;100.00
47530;BME280;33272;51.922;7.730;2022-12-18T00:12:09;102117.44;;;-9.60;100.00
47530;BME280;33272;51.922;7.730;2022-12-18T00:14:37;102119.09;;;-9.65;100.00
47530;BME280;33272;51.922;7.730;2022-12-18T00:17:04;102123.53;;;-9.68;100.00
47530;BME280;33272;51.922;7.730;2022-12-18T00:19:31;102118.31;;;-9.69;100.00
47530;BME280;33272;51.922;7.730;2022-12-18T00:21:58;102127.94;;;-9.71;100.00
47530;BME280;33272;51.922;7.730;2022-12-18T00:24:25;102132.41;;;-9.74;100.00
47530;BME280;33272;51.922;7.730;2022-12-18T00:26:52;102126.91;;;-9.77;100.00
47530;BME280;33272;51.922;7.730;2022-12-18T00:29:19;102121.41;;;-9.80;100.00
47530;BME280;33272;51.922;7.730;2022-12-18T00:31:48;102125.84;;;-9.83;100.00
47530;BME280;33272;51.922;7.730;2022-12-18T00:34:15;102127.50;;;-9.88;100.00
47530;BME280;33272;51.922;7.730;2022-12-18T00:36:42;102111.84;;;-9.92;100.00
47530;BME280;33272;51.922;7.730;2022-12-18T00:39:11;102118.19;;;-9.98;100.00
47530;BME280;33272;51.922;7.730;2022-12-18T00:41:38;102128.47;;;-10.01;100.00
47530;BME280;33272;51.922;7.730;2022-12-18T00:44:22;102133.78;;;-10.04;100.00
47530;BME280;33272;51.922;7.730;2022-12-18T00:46:51;102128.31;;;-10.07;100.00
47530;BME280;33272;51.922;7.730;2022-12-18T00:49:19;102125.81;;;-10.07;100.00
47530;BME280;33272;51.922;7.730;2022-12-18T00:51:46;102120.22;;;-10.06;100.00
47530;BME280;33272;51.922;7.730;2022-12-18T00:54:13;102115.00;;;-10.07;100.00
47530;BME280;33272;51.922;7.730;2022-12-18T00:56:41;102112.25;;;-10.09;100.00
47530;BME280;33272;51.922;7.730;2022-12-18T00:59:08;102120.69;;;-10.12;100.00
47530;BME280;33272;51.922;7.730;2022-12-18T01:01:35;102131.00;;;-10.15;100.00
47530;BME280;33272;51.922;7.730;2022-12-18T01:04:04;102119.38;;;-10.20;100.00
47530;BME280;33272;51.922;7.730;2022-12-18T01:06:32;102125.59;;;-10.22;100.00
47530;BME280;33272;51.922;7.730;2022-12-18T01:08:59;102118.31;;;-10.26;100.00
47530;BME280;33272;51.922;7.730;2022-12-18T01:11:26;102114.66;;;-10.28;100.00
47530;BME280;33272;51.922;7.730;2022-12-18T01:13:54;102114.66;;;-10.28;100.00
47530;BME280;33272;51.922;7.730;2022-12-18T01:16:22;102115.31;;;-10.29;100.00
47530;BME280;33272;51.922;7.730;2022-12-18T01:18:52;102122.06;;;-10.28;100.00
47530;BME280;33272;51.922;7.730;2022-12-18T01:21:22;102112.84;;;-10.29;100.00
47530;BME280;33272;51.922;7.730;2022-12-18T01:23:52;102108.91;;;-10.33;100.00
47530;BME280;33272;51.922;7.730;2022-12-18T01:26:20;102108.63;;;-10.34;100.00
47530;BME280;33272;51.922;7.730;2022-12-18T01:28:47;102113.31;;;-10.36;100.00
47530;BME280;33272;51.922;7.730;2022-12-18T01:31:18;102118.91;;;-10.37;100.00
47530;BME280;33272;51.922;7.730;2022-12-18T01:33:49;102104.44;;;-10.39;100.00
47530;BME280;33272;51.922;7.730;2022-12-18T01:36:23;102100.75;;;-10.41;100.00
47530;BME280;33272;51.922;7.730;2022-12-18T01:38:51;102106.09;;;-10.44;100.00
47530;BME280;33272;51.922;7.730;2022-12-18T01:41:21;102109.31;;;-10.49;100.00
47530;BME280;33272;51.922;7.730;2022-12-18T01:43:52;102117.47;;;-10.54;100.00
47530;BME280;33272;51.922;7.730;2022-12-18T01:46:22;102111.72;;;-10.59;100.00
47530;BME280;33272;51.922;7.730;2022-12-18T01:48:52;102106.50;;;-10.60;100.00
47530;BME280;33272;51.922;7.730;2022-12-18T01:51:21;102108.97;;;-10.60;100.00
47530;BME280;33272;51.922;7.730;2022-12-18T01:53:48;102111.97;;;-10.57;100.00
47530;BME280;33272;51.922;7.730;2022-12-18T01:56:21;102116.94;;;-10.57;100.00
47530;BME280;33272;51.922;7.730;2022-12-18T01:58:54;102122.78;;;-10.57;100.00
47530;BME280;33272;51.922;7.730;2022-12-18T02:01:24;102117.59;;;-10.58;100.00
47530;BME280;33272;51.922;7.730;2022-12-18T02:03:52;102124.72;;;-10.60;100.00
47530;BME280;33272;51.922;7.730;2022-12-18T02:06:25;102133.34;;;-10.58;100.00
47530;BME280;33272;51.922;7.730;2022-12-18T02:09:05;102120.06;;;-10.58;100.00
47530;BME280;33272;51.922;7.730;2022-12-18T02:11:46;102118.84;;;-10.60;100.00
47530;BME280;33272;51.922;7.730;2022-12-18T02:14:28;102117.66;;;-10.62;100.00
47530;BME280;33272;51.922;7.730;2022-12-18T02:17:03;102123.00;;;-10.65;100.00
47530;BME280;33272;51.922;7.730;2022-12-18T02:19:45;102111.66;;;-10.68;100.00
47530;BME280;33272;51.922;7.730;2022-12-18T02:22:28;102107.06;;;-10.71;100.00
47530;BME280;33272;51.922;7.730;2022-12-18T02:25:13;102101.75;;;-10.68;100.00
47530;BME280;33272;51.922;7.730;2022-12-18T02:27:46;102107.88;;;-10.66;100.00
47530;BME280;33272;51.922;7.730;2022-12-18T02:30:16;102106.31;;;-10.66;100.00
47530;BME280;33272;51.922;7.730;2022-12-18T02:32:47;102094.88;;;-10.65;100.00
47530;BME280;33272;51.922;7.730;2022-12-18T02:35:20;102090.56;;;-10.66;100.00
47530;BME280;33272;51.922;7.730;2022-12-18T02:37:48;102089.66;;;-10.67;100.00
47530;BME280;33272;51.922;7.730;2022-12-18T02:40:17;102082.59;;;-10.69;100.00
47530;BME280;33272;51.922;7.730;2022-12-18T02:42:47;102090.31;;;-10.68;100.00
47530;BME280;33272;51.922;7.730;2022-12-18T02:45:14;102092.41;;;-10.65;100.00
47530;BME280;33272;51.922;7.730;2022-12-18T02:47:44;102096.06;;;-10.63;100.00
47530;BME280;33272;51.922;7.730;2022-12-18T02:50:18;102094.78;;;-10.61;100.00
47530;BME280;33272;51.922;7.730;2022-12-18T02:53:00;102100.34;;;-10.62;100.00
47530;BME280;33272;51.922;7.730;2022-12-18T02:55:40;102089.53;;;-10.63;100.00
47530;BME280;33272;51.922;7.730;2022-12-18T02:58:18;102096.41;;;-10.66;100.00
47530;BME280;33272;51.922;7.730;2022-12-18T03:00:52;102103.28;;;-10.69;100.00
47530;BME280;33272;51.922;7.730;2022-12-18T03:03:26;102100.66;;;-10.75;100.00
47530;BME280;33272;51.922;7.730;2022-12-18T03:06:03;102100.50;;;-10.80;100.00
47530;BME280;33272;51.922;7.730;2022-12-18T03:08:36;102104.22;;;-10.82;100.00
47530;BME280;33272;51.922;7.730;2022-12-18T03:11:07;102097.47;;;-10.83;100.00
47530;BME280;33272;51.922;7.730;2022-12-18T03:13:40;102087.84;;;-10.82;100.00
47530;BME280;33272;51.922;7.730;2022-12-18T03:16:14;102083.19;;;-10.80;100.00
47530;BME280;33272;51.922;7.730;2022-12-18T03:18:47;102084.34;;;-10.78;100.00
47530;BME280;33272;51.922;7.730;2022-12-18T03:21:19;102083.97;;;-10.76;100.00
47530;BME280;33272;51.922;7.730;2022-12-18T03:23:49;102083.06;;;-10.76;100.00
47530;BME280;33272;51.922;7.730;2022-12-18T03:26:21;102091.16;;;-10.77;100.00
47530;BME280;33272;51.922;7.730;2022-12-18T03:28:53;102086.81;;;-10.78;100.00
47530;BME280;33272;51.922;7.730;2022-12-18T03:31:23;102089.03;;;-10.80;100.00
47530;BME280;33272;51.922;7.730;2022-12-18T03:33:54;102095.53;;;-10.80;100.00
47530;BME280;33272;51.922;7.730;2022-12-18T03:36:21;102098.38;;;-10.83;100.00
47530;BME280;33272;51.922;7.730;2022-12-18T03:38:49;102096.81;;;-10.82;100.00
47530;BME280;33272;51.922;7.730;2022-12-18T03:41:23;102102.97;;;-10.80;100.00
47530;BME280;33272;51.922;7.730;2022-12-18T03:44:01;102107.16;;;-10.75;100.00
47530;BME280;33272;51.922;7.730;2022-12-18T03:46:38;102101.47;;;-10.70;100.00
47530;BME280;33272;51.922;7.730;2022-12-18T03:49:11;102100.09;;;-10.64;100.00
47530;BME280;33272;51.922;7.730;2022-12-18T03:51:45;102097.78;;;-10.58;100.00
47530;BME280;33272;51.922;7.730;2022-12-18T03:54:15;102105.75;;;-10.55;100.00
47530;BME280;33272;51.922;7.730;2022-12-18T03:56:47;102099.63;;;-10.57;100.00
47530;BME280;33272;51.922;7.730;2022-12-18T03:59:17;102094.41;;;-10.59;100.00
47530;BME280;33272;51.922;7.730;2022-12-18T04:01:49;102095.69;;;-10.61;100.00
47530;BME280;33272;51.922;7.730;2022-12-18T04:04:19;102086.16;;;-10.63;100.00
47530;BME280;33272;51.922;7.730;2022-12-18T04:06:48;102096.41;;;-10.66;100.00
47530;BME280;33272;51.922;7.730;2022-12-18T04:09:16;102071.44;;;-10.67;100.00
47530;BME280;33272;51.922;7.730;2022-12-18T04:11:43;102076.75;;;-10.70;100.00
47530;BME280;33272;51.922;7.730;2022-12-18T04:14:10;102084.28;;;-10.74;100.00
47530;BME280;33272;51.922;7.730;2022-12-18T04:16:38;102084.63;;;-10.77;100.00
47530;BME280;33272;51.922;7.730;2022-12-18T04:19:05;102081.88;;;-10.78;100.00
47530;BME280;33272;51.922;7.730;2022-12-18T04:21:32;102085.28;;;-10.78;100.00
47530;BME280;33272;51.922;7.730;2022-12-18T04:23:59;102088.00;;;-10.76;100.00
47530;BME280;33272;51.922;7.730;2022-12-18T04:26:26;102084.28;;;-10.74;100.00
47530;BME280;33272;51.922;7.730;2022-12-18T04:28:53;102078.97;;;-10.71;100.00
47530;BME280;33272;51.922;7.730;2022-12-18T04:31:20;102082.22;;;-10.67;100.00
47530;BME280;33272;51.922;7.730;2022-12-18T04:33:49;102077.19;;;-10.63;100.00
47530;BME280;33272;51.922;7.730;2022-12-18T04:36:16;102077.72;;;-10.60;100.00
47530;BME280;33272;51.922;7.730;2022-12-18T04:38:42;102081.03;;;-10.55;100.00
47530;BME280;33272;51.922;7.730;2022-12-18T04:41:09;102078.44;;;-10.51;100.00
47530;BME280;33272;51.922;7.730;2022-12-18T04:43:36;102072.75;;;-10.46;100.00
47530;BME280;33272;51.922;7.730;2022-12-18T04:46:05;102075.78;;;-10.43;100.00
47530;BME280;33272;51.922;7.730;2022-12-18T04:48:33;102082.53;;;-10.42;100.00
47530;BME280;33272;51.922;7.730;2022-12-18T04:51:02;102076.38;;;-10.44;100.00
47530;BME280;33272;51.922;7.730;2022-12-18T04:53:29;102080.97;;;-10.41;100.00
47530;BME280;33272;51.922;7.730;2022-12-18T04:56:07;102070.41;;;-10.40;100.00
47530;BME280;33272;51.922;7.730;2022-12-18T04:58:35;102064.19;;;-10.38;100.00
47530;BME280;33272;51.922;7.730;2022-12-18T05:01:02;102059.41;;;-10.33;100.00
47530;BME280;33272;51.922;7.730;2022-12-18T05:03:30;102062.97;;;-10.27;100.00
47530;BME280;33272;51.922;7.730;2022-12-18T05:05:57;102058.94;;;-10.16;100.00
47530;BME280;33272;51.922;7.730;2022-12-18T05:08:26;102061.09;;;-10.04;100.00
47530;BME280;33272;51.922;7.730;2022-12-18T05:10:59;102067.81;;;-9.89;100.00
47530;BME280;33272;51.922;7.730;2022-12-18T05:13:26;102071.47;;;-9.77;100.00
47530;BME280;33272;51.922;7.730;2022-12-18T05:15:54;102070.72;;;-9.72;100.00
47530;BME280;33272;51.922;7.730;2022-12-18T05:18:21;102069.16;;;-9.72;100.00
47530;BME280;33272;51.922;7.730;2022-12-18T05:20:49;102072.94;;;-9.74;100.00
47530;BME280;33272;51.922;7.730;2022-12-18T05:23:16;102071.09;;;-9.75;100.00
47530;BME280;33272;51.922;7.730;2022-12-18T05:25:50;102061.47;;;-9.73;100.00
47530;BME280;33272;51.922;7.730;2022-12-18T05:28:18;102061.34;;;-9.69;100.00
47530;BME280;33272;51.922;7.730;2022-12-18T05:30:48;102061.34;;;-9.69;100.00
47530;BME280;33272;51.922;7.730;2022-12-18T05:33:16;102069.44;;;-9.70;100.00
47530;BME280;33272;51.922;7.730;2022-12-18T05:35:43;102062.09;;;-9.74;100.00
47530;BME280;33272;51.922;7.730;2022-12-18T05:38:10;102074.63;;;-9.78;100.00
47530;BME280;33272;51.922;7.730;2022-12-18T05:40:40;102079.03;;;-9.82;100.00
47530;BME280;33272;51.922;7.730;2022-12-18T05:43:09;102076.94;;;-9.84;100.00
47530;BME280;33272;51.922;7.730;2022-12-18T05:45:37;102082.53;;;-9.85;100.00
47530;BME280;33272;51.922;7.730;2022-12-18T05:48:05;102083.19;;;-9.86;100.00
47530;BME280;33272;51.922;7.730;2022-12-18T05:50:34;102072.75;;;-9.89;100.00
47530;BME280;33272;51.922;7.730;2022-12-18T05:53:01;102072.47;;;-9.91;100.00
47530;BME280;33272;51.922;7.730;2022-12-18T05:55:28;102068.84;;;-9.93;100.00
47530;BME280;33272;51.922;7.730;2022-12-18T05:57:55;102061.78;;;-9.95;100.00
47530;BME280;33272;51.922;7.730;2022-12-18T06:00:24;102061.25;;;-9.98;100.00
47530;BME280;33272;51.922;7.730;2022-12-18T06:02:51;102061.63;;;-10.01;100.00
47530;BME280;33272;51.922;7.730;2022-12-18T06:05:18;102067.22;;;-10.02;100.00
47530;BME280;33272;51.922;7.730;2022-12-18T06:07:45;102069.72;;;-10.02;100.00
47530;BME280;33272;51.922;7.730;2022-12-18T06:10:12;102078.66;;;-10.03;100.00
47530;BME280;33272;51.922;7.730;2022-12-18T06:12:39;102079.59;;;-10.02;100.00
47530;BME280;33272;51.922;7.730;2022-12-18T06:15:07;102084.16;;;-9.99;100.00
47530;BME280;33272;51.922;7.730;2022-12-18T06:17:35;102081.31;;;-9.97;100.00
47530;BME280;33272;51.922;7.730;2022-12-18T06:20:04;102081.59;;;-9.95;100.00
47530;BME280;33272;51.922;7.730;2022-12-18T06:22:32;102096.69;;;-9.94;100.00
47530;BME280;33272;51.922;7.730;2022-12-18T06:25:00;102101.66;;;-9.94;100.00
47530;BME280;33272;51.922;7.730;2022-12-18T06:27:27;102104.50;;;-9.96;100.00
47530;BME280;33272;51.922;7.730;2022-12-18T06:29:54;102107.09;;;-10.00;100.00
47530;BME280;33272;51.922;7.730;2022-12-18T06:32:21;102108.78;;;-10.05;100.00
47530;BME280;33272;51.922;7.730;2022-12-18T06:34:49;102117.84;;;-10.10;100.00
47530;BME280;33272;51.922;7.730;2022-12-18T06:37:16;102118.50;;;-10.11;100.00
47530;BME280;33272;51.922;7.730;2022-12-18T06:39:44;102114.31;;;-10.16;100.00
47530;BME280;33272;51.922;7.730;2022-12-18T06:42:11;102118.72;;;-10.19;100.00
47530;BME280;33272;51.922;7.730;2022-12-18T06:44:38;102109.84;;;-10.22;100.00
47530;BME280;33272;51.922;7.730;2022-12-18T06:47:05;102102.56;;;-10.27;100.00
47530;BME280;33272;51.922;7.730;2022-12-18T06:49:32;102106.16;;;-10.24;100.00
47530;BME280;33272;51.922;7.730;2022-12-18T06:52:00;102114.25;;;-10.26;100.00
47530;BME280;33272;51.922;7.730;2022-12-18T06:54:27;102109.44;;;-10.30;100.00
47530;BME280;33272;51.922;7.730;2022-12-18T06:56:55;102110.47;;;-10.33;100.00
47530;BME280;33272;51.922;7.730;2022-12-18T06:59:22;102108.38;;;-10.36;100.00
47530;BME280;33272;51.922;7.730;2022-12-18T07:01:49;102115.50;;;-10.37;100.00
47530;BME280;33272;51.922;7.730;2022-12-18T07:04:16;102118.25;;;-10.36;100.00
47530;BME280;33272;51.922;7.730;2022-12-18T07:06:43;102110.47;;;-10.33;100.00
47530;BME280;33272;51.922;7.730;2022-12-18T07:09:11;102109.06;;;-10.27;100.00
47530;BME280;33272;51.922;7.730;2022-12-18T07:11:38;102104.22;;;-10.21;100.00
47530;BME280;33272;51.922;7.730;2022-12-18T07:14:05;102103.78;;;-10.15;100.00
47530;BME280;33272;51.922;7.730;2022-12-18T07:16:32;102103.91;;;-10.09;100.00
47530;BME280;33272;51.922;7.730;2022-12-18T07:18:59;102101.22;;;-10.01;100.00
47530;BME280;33272;51.922;7.730;2022-12-18T07:21:26;102096.97;;;-9.92;100.00
47530;BME280;33272;51.922;7.730;2022-12-18T07:23:53;102097.13;;;-9.87;100.00
47530;BME280;33272;51.922;7.730;2022-12-18T07:26:22;102097.28;;;-9.81;100.00
47530;BME280;33272;51.922;7.730;2022-12-18T07:28:49;102095.88;;;-9.75;100.00
47530;BME280;33272;51.922;7.730;2022-12-18T07:31:19;102091.06;;;-9.69;100.00
47530;BME280;33272;51.922;7.730;2022-12-18T07:33:47;102091.75;;;-9.61;100.00
47530;BME280;33272;51.922;7.730;2022-12-18T07:36:14;102088.13;;;-9.53;100.00
47530;BME280;33272;51.922;7.730;2022-12-18T07:38:41;102089.84;;;-9.48;100.00
47530;BME280;33272;51.922;7.730;2022-12-18T07:41:11;102091.53;;;-9.43;100.00
47530;BME280;33272;51.922;7.730;2022-12-18T07:43:40;102087.38;;;-9.38;100.00
47530;BME280;33272;51.922;7.730;2022-12-18T07:46:09;102082.31;;;-9.34;100.00
47530;BME280;33272;51.922;7.730;2022-12-18T07:48:36;102080.88;;;-9.28;100.00
47530;BME280;33272;51.922;7.730;2022-12-18T07:51:06;102066.16;;;-9.22;100.00
47530;BME280;33272;51.922;7.730;2022-12-18T07:53:35;102068.78;;;-9.17;100.00
47530;BME280;33272;51.922;7.730;2022-12-18T07:56:05;102061.44;;;-9.11;100.00
47530;BME280;33272;51.922;7.730;2022-12-18T07:58:33;102060.81;;;-9.00;100.00
47530;BME280;33272;51.922;7.730;2022-12-18T08:01:06;102058.72;;;-8.93;100.00
47530;BME280;33272;51.922;7.730;2022-12-18T08:03:34;102065.38;;;-8.88;100.00
47530;BME280;33272;51.922;7.730;2022-12-18T08:06:02;102066.16;;;-8.83;100.00
47530;BME280;33272;51.922;7.730;2022-12-18T08:08:30;102064.47;;;-8.79;100.00
47530;BME280;33272;51.922;7.730;2022-12-18T08:10:58;102070.47;;;-8.73;100.00
47530;BME280;33272;51.922;7.730;2022-12-18T08:13:26;102073.06;;;-8.67;100.00
47530;BME280;33272;51.922;7.730;2022-12-18T08:15:57;102066.03;;;-8.60;100.00
47530;BME280;33272;51.922;7.730;2022-12-18T08:18:26;102063.78;;;-8.49;100.00
47530;BME280;33272;51.922;7.730;2022-12-18T08:20:53;102069.88;;;-8.37;100.00
47530;BME280;33272;51.922;7.730;2022-12-18T08:23:21;102072.84;;;-8.24;100.00
47530;BME280;33272;51.922;7.730;2022-12-18T08:25:48;102077.91;;;-8.09;100.00
47530;BME280;33272;51.922;7.730;2022-12-18T08:28:15;102082.69;;;-7.95;100.00
47530;BME280;33272;51.922;7.730;2022-12-18T08:30:42;102080.66;;;-7.82;100.00
47530;BME280;33272;51.922;7.730;2022-12-18T08:33:09;102070.97;;;-7.71;100.00
47530;BME280;33272;51.922;7.730;2022-12-18T08:35:37;102057.81;;;-7.60;100.00
47530;BME280;33272;51.922;7.730;2022-12-18T08:38:04;102052.78;;;-7.51;100.00
47530;BME280;33272;51.922;7.730;2022-12-18T08:40:31;102051.81;;;-7.41;100.00
47530;BME280;33272;51.922;7.730;2022-12-18T08:42:58;102050.59;;;-7.34;100.00
47530;BME280;33272;51.922;7.730;2022-12-18T08:45:43;102047.13;;;-7.25;100.00
47530;BME280;33272;51.922;7.730;2022-12-18T08:48:10;102033.06;;;-7.14;100.00
47530;BME280;33272;51.922;7.730;2022-12-18T08:50:38;102037.03;;;-7.05;100.00
47530;BME280;33272;51.922;7.730;2022-12-18T08:53:05;102041.75;;;-6.91;100.00
47530;BME280;33272;51.922;7.730;2022-12-18T08:55:34;102050.31;;;-6.80;100.00
47530;BME280;33272;51.922;7.730;2022-12-18T08:58:01;102045.47;;;-6.68;100.00
47530;BME280;33272;51.922;7.730;2022-12-18T09:00:28;102035.88;;;-6.61;100.00
47530;BME280;33272;51.922;7.730;2022-12-18T09:02:55;102034.59;;;-6.54;100.00
47530;BME280;33272;51.922;7.730;2022-12-18T09:05:22;102030.19;;;-6.45;100.00
47530;BME280;33272;51.922;7.730;2022-12-18T09:07:51;102035.75;;;-6.36;100.00
47530;BME280;33272;51.922;7.730;2022-12-18T09:10:18;102021.78;;;-6.30;100.00
47530;BME280;33272;51.922;7.730;2022-12-18T09:12:45;102025.50;;;-6.22;100.00
47530;BME280;33272;51.922;7.730;2022-12-18T09:15:12;102027.38;;;-6.16;100.00
47530;BME280;33272;51.922;7.730;2022-12-18T09:17:39;102022.94;;;-6.07;100.00
47530;BME280;33272;51.922;7.730;2022-12-18T09:20:07;102031.22;;;-5.97;100.00
47530;BME280;33272;51.922;7.730;2022-12-18T09:22:37;102021.75;;;-5.88;100.00
47530;BME280;33272;51.922;7.730;2022-12-18T09:25:06;102024.34;;;-5.77;100.00
47530;BME280;33272;51.922;7.730;2022-12-18T09:27:34;102028.56;;;-5.66;100.00
47530;BME280;33272;51.922;7.730;2022-12-18T09:30:01;102035.22;;;-5.55;100.00
47530;BME280;33272;51.922;7.730;2022-12-18T09:32:28;102045.53;;;-5.43;100.00
47530;BME280;33272;51.922;7.730;2022-12-18T09:34:55;102045.22;;;-5.29;100.00
47530;BME280;33272;51.922;7.730;2022-12-18T09:37:22;102047.78;;;-5.18;100.00
47530;BME280;33272;51.922;7.730;2022-12-18T09:39:49;102045.84;;;-5.09;100.00
47530;BME280;33272;51.922;7.730;2022-12-18T09:42:21;102050.91;;;-4.98;100.00
47530;BME280;33272;51.922;7.730;2022-12-18T09:44:52;102043.69;;;-4.91;100.00
47530;BME280;33272;51.922;7.730;2022-12-18T09:47:23;102042.63;;;-4.81;100.00
47530;BME280;33272;51.922;7.730;2022-12-18T09:49:56;102040.19;;;-4.70;100.00
47530;BME280;33272;51.922;7.730;2022-12-18T09:52:27;102040.25;;;-4.59;100.00
47530;BME280;33272;51.922;7.730;2022-12-18T09:55:01;102035.56;;;-4.46;100.00
47530;BME280;33272;51.922;7.730;2022-12-18T09:57:33;102026.97;;;-4.37;100.00
47530;BME280;33272;51.922;7.730;2022-12-18T10:00:08;102029.75;;;-4.24;100.00
47530;BME280;33272;51.922;7.730;2022-12-18T10:02:38;102014.34;;;-4.16;100.00
47530;BME280;33272;51.922;7.730;2022-12-18T10:05:10;102006.66;;;-4.06;100.00
47530;BME280;33272;51.922;7.730;2022-12-18T10:07:53;102003.50;;;-3.94;100.00
47530;BME280;33272;51.922;7.730;2022-12-18T10:10:33;102006.91;;;-3.82;100.00
47530;BME280;33272;51.922;7.730;2022-12-18T10:13:13;102004.91;;;-3.68;100.00
47530;BME280;33272;51.922;7.730;2022-12-18T10:15:54;101999.88;;;-3.57;100.00
47530;BME280;33272;51.922;7.730;2022-12-18T10:18:36;101980.78;;;-3.45;100.00
47530;BME280;33272;51.922;7.730;2022-12-18T10:21:11;101981.25;;;-3.36;100.00
47530;BME280;33272;51.922;7.730;2022-12-18T10:23:47;101983.28;;;-3.28;100.00
47530;BME280;33272;51.922;7.730;2022-12-18T10:26:18;101980.78;;;-3.22;100.00
47530;BME280;33272;51.922;7.730;2022-12-18T10:28:47;101980.78;;;-3.17;100.00
47530;BME280;33272;51.922;7.730;2022-12-18T10:31:18;101975.09;;;-3.16;100.00
47530;BME280;33272;51.922;7.730;2022-12-18T10:33:45;101972.81;;;-3.09;100.00
47530;BME280;33272;51.922;7.730;2022-12-18T10:36:13;101966.66;;;-3.05;100.00
47530;BME280;33272;51.922;7.730;2022-12-18T10:38:40;101952.28;;;-3.00;100.00
47530;BME280;33272;51.922;7.730;2022-12-18T10:41:25;101955.69;;;-2.94;100.00
47530;BME280;33272;51.922;7.730;2022-12-18T10:44:16;101951.13;;;-2.91;100.00
47530;BME280;33272;51.922;7.730;2022-12-18T10:46:45;101952.03;;;-2.85;100.00
47530;BME280;33272;51.922;7.730;2022-12-18T10:49:22;101944.50;;;-2.74;100.00
47530;BME280;33272;51.922;7.730;2022-12-18T10:51:51;101938.78;;;-2.67;100.00
47530;BME280;33272;51.922;7.730;2022-12-18T10:54:21;101928.94;;;-2.60;100.00
47530;BME280;33272;51.922;7.730;2022-12-18T10:56:49;101919.56;;;-2.56;100.00
47530;BME280;33272;51.922;7.730;2022-12-18T10:59:18;101910.41;;;-2.44;100.00
47530;BME280;33272;51.922;7.730;2022-12-18T11:01:49;101901.69;;;-2.35;100.00
47530;BME280;33272;51.922;7.730;2022-12-18T11:04:20;101908.72;;;-2.26;100.00
47530;BME280;33272;51.922;7.730;2022-12-18T11:06:58;101905.50;;;-2.20;100.00
47530;BME280;33272;51.922;7.730;2022-12-18T11:09:26;101904.28;;;-2.11;100.00
47530;BME280;33272;51.922;7.730;2022-12-18T11:11:56;101902.41;;;-2.06;100.00
47530;BME280;33272;51.922;7.730;2022-12-18T11:14:29;101899.16;;;-1.99;100.00
47530;BME280;33272;51.922;7.730;2022-12-18T11:16:59;101903.00;;;-1.90;100.00
47530;BME280;33272;51.922;7.730;2022-12-18T11:19:32;101905.94;;;-1.87;100.00
47530;BME280;33272;51.922;7.730;2022-12-18T11:22:02;101891.28;;;-1.78;100.00
47530;BME280;33272;51.922;7.730;2022-12-18T11:24:32;101891.66;;;-1.70;100.00
47530;BME280;33272;51.922;7.730;2022-12-18T11:27:03;101890.22;;;-1.62;100.00
47530;BME280;33272;51.922;7.730;2022-12-18T11:29:37;101882.41;;;-1.58;100.00
47530;BME280;33272;51.922;7.730;2022-12-18T11:32:34;101883.25;;;-1.52;100.00
47530;BME280;33272;51.922;7.730;2022-12-18T11:35:14;101874.97;;;-1.45;100.00
47530;BME280;33272;51.922;7.730;2022-12-18T11:37:49;101862.81;;;-1.36;100.00
47530;BME280;33272;51.922;7.730;2022-12-18T11:40:20;101863.66;;;-1.30;100.00
47530;BME280;33272;51.922;7.730;2022-12-18T11:42:54;101869.09;;;-1.27;100.00
47530;BME280;33272;51.922;7.730;2022-12-18T11:45:33;101858.09;;;-1.22;100.00
47530;BME280;33272;51.922;7.730;2022-12-18T11:48:05;101860.56;;;-1.17;100.00
47530;BME280;33272;51.922;7.730;2022-12-18T11:50:46;101854.75;;;-1.10;100.00
47530;BME280;33272;51.922;7.730;2022-12-18T11:53:15;101849.16;;;-1.02;100.00
47530;BME280;33272;51.922;7.730;2022-12-18T11:55:53;101858.44;;;-0.95;100.00
47530;BME280;33272;51.922;7.730;2022-12-18T11:58:46;101851.13;;;-0.94;100.00
47530;BME280;33272;51.922;7.730;2022-12-18T12:01:34;101851.97;;;-0.87;100.00
47530;BME280;33272;51.922;7.730;2022-12-18T12:04:46;101848.03;;;-0.85;100.00
47530;BME280;33272;51.922;7.730;2022-12-18T12:07:28;101845.88;;;-0.77;100.00
47530;BME280;33272;51.922;7.730;2022-12-18T12:10:12;101838.75;;;-0.74;100.00
47530;BME280;33272;51.922;7.730;2022-12-18T12:12:59;101827.31;;;-0.72;100.00
47530;BME280;33272;51.922;7.730;2022-12-18T12:15:39;101819.47;;;-0.67;100.00
47530;BME280;33272;51.922;7.730;2022-12-18T12:18:23;101818.28;;;-0.64;100.00
47530;BME280;33272;51.922;7.730;2022-12-18T12:21:06;101819.19;;;-0.63;100.00
47530;BME280;33272;51.922;7.730;2022-12-18T12:23:44;101820.94;;;-0.57;100.00
47530;BME280;33272;51.922;7.730;2022-12-18T12:26:22;101818.81;;;-0.54;100.00
47530;BME280;33272;51.922;7.730;2022-12-18T12:29:05;101823.78;;;-0.48;100.00
47530;BME280;33272;51.922;7.730;2022-12-18T12:31:51;101814.13;;;-0.45;100.00
47530;BME280;33272;51.922;7.730;2022-12-18T12:34:31;101817.06;;;-0.42;100.00
47530;BME280;33272;51.922;7.730;2022-12-18T12:37:17;101812.66;;;-0.37;100.00
47530;BME280;33272;51.922;7.730;2022-12-18T12:39:48;101803.91;;;-0.34;100.00
47530;BME280;33272;51.922;7.730;2022-12-18T12:42:23;101789.50;;;-0.35;100.00
47530;BME280;33272;51.922;7.730;2022-12-18T12:45:20;101770.41;;;-0.40;100.00
47530;BME280;33272;51.922;7.730;2022-12-18T12:47:52;101768.78;;;-0.39;100.00
47530;BME280;33272;51.922;7.730;2022-12-18T12:50:22;101759.84;;;-0.37;100.00
47530;BME280;33272;51.922;7.730;2022-12-18T12:52:52;101757.50;;;-0.36;100.00
47530;BME280;33272;51.922;7.730;2022-12-18T12:55:22;101751.78;;;-0.35;100.00